Terminal Aerodrome Forecast
Issued by NWS

Current Version | Previous Version | Text Only | Print | Product List | Glossary On
Versions: 1 2 3 4 5 6 7 8 9 10 11 12 13 14 15 16 17 18 19 20 21 22
000
FTUS44 KOUN 262326
TAFLAW
TAF
KLAW 262326Z 2700/2724 36014KT P6SM BKN040
     FM270400 35016G24KT P6SM OVC015
     FM271400 35015KT P6SM OVC025
     FM271800 36013KT P6SM BKN035
     FM272100 36011KT P6SM SCT040=

USA.gov is the U.S. government's official web portal to all federal, state and local government web resources and services.